Observations for BLACKPOOL AIRPORT, United Kingdom (EGNH)

EGNH 130850Z 12016KT 9999 FEW025 03/M01 Q1016   
EGNH 130820Z 12017KT 9999 FEW028 04/M01 Q1016   
EGNH 130750Z 12017G27KT 9999 FEW029 03/M01 Q1016
EGNH 130720Z 12018KT CAVOK 04/M01 Q1016 
EGNH 130650Z 12018KT CAVOK 03/M01 Q1015 
EGNH 130620Z 12016KT CAVOK 04/M01 Q1015 
EGNH 122050Z 11023KT CAVOK 04/00 Q1016  
EGNH 122020Z 11020KT CAVOK 04/01 Q1016  
EGNH 121950Z 12018KT CAVOK 05/02 Q1016  
EGNH 121920Z 11017KT 9999 FEW037 05/02 Q1017
EGNH 121850Z 12017KT 9999 FEW036 05/02 Q1017
EGNH 121820Z 12017KT 9999 FEW019 06/03 Q1017
EGNH 121750Z 12017KT 9999 FEW030 06/04 Q1017
EGNH 121720Z 11019G29KT 9999 FEW032 06/04 Q1017 
EGNH 121650Z 11017KT 9999 FEW031 06/04 Q1017
EGNH 121620Z 12016KT CAVOK 07/04 Q1017  
EGNH 121550Z 12015KT CAVOK 07/04 Q1017  
EGNH 121520Z 12014KT 9999 FEW010 07/04 Q1017
EGNH 121450Z 13017KT CAVOK 07/04 Q1018  
EGNH 121420Z 13020KT 9999 FEW019 08/05 Q1018
EGNH 121350Z 12020KT 9999 FEW016 08/05 Q1018
EGNH 121250Z 13019KT 9000 SCT015 08/05 Q1019
EGNH 121220Z 13019KT 8000 SCT013 07/05 Q1019
EGNH 121120Z 12019KT 7000 FEW011 07/05 Q1019
EGNH 121020Z 12016KT 7000 SCT011 07/05 Q1020
EGNH 120950Z 12017KT 7000 SCT010 06/05 Q1020
EGNH 120920Z 12016KT 8000 SCT011 06/05 Q1020
EGNH 120850Z 12016KT 8000 FEW015 06/05 Q1020
EGNH 120820Z 12015KT 8000 FEW010 06/05 Q1020